sensor_id;sensor_type;location;lat;lon;timestamp;pressure;altitude;pressure_sealevel;temperature;humidity
84147;BME280;74267;50.434;7.398;2024-01-10T00:00:06;102088.84;;;-4.95;63.56
84147;BME280;74267;50.434;7.398;2024-01-10T00:02:32;102073.97;;;-5.07;63.87
84147;BME280;74267;50.434;7.398;2024-01-10T00:04:57;102082.31;;;-5.02;63.26
84147;BME280;74267;50.434;7.398;2024-01-10T00:07:22;102075.38;;;-5.00;63.78
84147;BME280;74267;50.434;7.398;2024-01-10T00:09:48;102078.69;;;-4.98;63.97
84147;BME280;74267;50.434;7.398;2024-01-10T00:12:13;102071.78;;;-4.96;64.10
84147;BME280;74267;50.434;7.398;2024-01-10T00:14:38;102071.91;;;-4.99;64.20
84147;BME280;74267;50.434;7.398;2024-01-10T00:17:04;102072.06;;;-5.02;64.05
84147;BME280;74267;50.434;7.398;2024-01-10T00:19:29;102067.91;;;-5.04;64.12
84147;BME280;74267;50.434;7.398;2024-01-10T00:21:54;102061.13;;;-5.07;64.16
84147;BME280;74267;50.434;7.398;2024-01-10T00:24:20;102067.19;;;-5.08;64.48
84147;BME280;74267;50.434;7.398;2024-01-10T00:26:45;102060.25;;;-5.06;64.20
84147;BME280;74267;50.434;7.398;2024-01-10T00:29:11;102075.66;;;-5.06;64.59
84147;BME280;74267;50.434;7.398;2024-01-10T00:31:36;102067.59;;;-5.17;64.98
84147;BME280;74267;50.434;7.398;2024-01-10T00:34:02;102063.78;;;-5.09;64.45
84147;BME280;74267;50.434;7.398;2024-01-10T00:36:27;102063.72;;;-5.07;64.35
84147;BME280;74267;50.434;7.398;2024-01-10T00:38:52;102052.63;;;-5.07;65.47
84147;BME280;74267;50.434;7.398;2024-01-10T00:41:18;102057.91;;;-5.11;64.43
84147;BME280;74267;50.434;7.398;2024-01-10T00:43:43;102055.53;;;-5.15;65.15
84147;BME280;74267;50.434;7.398;2024-01-10T00:46:08;102047.97;;;-5.18;65.05
84147;BME280;74267;50.434;7.398;2024-01-10T00:48:33;102058.31;;;-5.20;64.62
84147;BME280;74267;50.434;7.398;2024-01-10T00:50:59;102063.91;;;-5.30;65.30
84147;BME280;74267;50.434;7.398;2024-01-10T00:53:25;102068.56;;;-5.38;66.04
84147;BME280;74267;50.434;7.398;2024-01-10T00:55:50;102059.41;;;-5.25;66.04
84147;BME280;74267;50.434;7.398;2024-01-10T00:58:16;102053.88;;;-5.16;65.83
84147;BME280;74267;50.434;7.398;2024-01-10T01:00:41;102051.94;;;-5.11;65.86
84147;BME280;74267;50.434;7.398;2024-01-10T01:03:06;102062.47;;;-5.17;65.83
84147;BME280;74267;50.434;7.398;2024-01-10T01:05:32;102049.16;;;-5.25;66.15
84147;BME280;74267;50.434;7.398;2024-01-10T01:07:57;102059.56;;;-5.28;65.67
84147;BME280;74267;50.434;7.398;2024-01-10T01:10:23;102043.31;;;-5.29;66.21
84147;BME280;74267;50.434;7.398;2024-01-10T01:12:48;102053.03;;;-5.35;65.53
84147;BME280;74267;50.434;7.398;2024-01-10T01:15:13;102053.56;;;-5.29;65.55
84147;BME280;74267;50.434;7.398;2024-01-10T01:17:39;102060.03;;;-5.20;65.77
84147;BME280;74267;50.434;7.398;2024-01-10T01:20:05;102061.66;;;-5.18;65.85
84147;BME280;74267;50.434;7.398;2024-01-10T01:22:31;102054.56;;;-5.13;65.22
84147;BME280;74267;50.434;7.398;2024-01-10T01:24:56;102050.69;;;-5.21;65.41
84147;BME280;74267;50.434;7.398;2024-01-10T01:27:22;102058.50;;;-5.24;65.81
84147;BME280;74267;50.434;7.398;2024-01-10T01:29:47;102052.31;;;-5.20;64.69
84147;BME280;74267;50.434;7.398;2024-01-10T01:32:13;102059.91;;;-5.17;65.32
84147;BME280;74267;50.434;7.398;2024-01-10T01:34:38;102061.84;;;-5.22;65.34
84147;BME280;74267;50.434;7.398;2024-01-10T01:37:03;102061.97;;;-5.25;65.24
84147;BME280;74267;50.434;7.398;2024-01-10T01:39:29;102062.19;;;-5.30;65.36
84147;BME280;74267;50.434;7.398;2024-01-10T01:41:54;102063.56;;;-5.41;65.64
84147;BME280;74267;50.434;7.398;2024-01-10T01:44:19;102065.09;;;-5.37;66.54
84147;BME280;74267;50.434;7.398;2024-01-10T01:46:46;102053.16;;;-5.38;65.69
84147;BME280;74267;50.434;7.398;2024-01-10T01:49:11;102054.06;;;-5.39;65.45
84147;BME280;74267;50.434;7.398;2024-01-10T01:51:37;102056.78;;;-5.42;66.51
84147;BME280;74267;50.434;7.398;2024-01-10T01:54:06;102054.69;;;-5.34;65.82
84147;BME280;74267;50.434;7.398;2024-01-10T01:56:31;102045.53;;;-5.40;66.16
84147;BME280;74267;50.434;7.398;2024-01-10T01:58:56;102054.53;;;-5.50;66.28
84147;BME280;74267;50.434;7.398;2024-01-10T02:01:22;102038.09;;;-5.46;66.36
84147;BME280;74267;50.434;7.398;2024-01-10T02:03:48;102045.72;;;-5.44;66.03
84147;BME280;74267;50.434;7.398;2024-01-10T02:06:13;102051.84;;;-5.28;66.09
84147;BME280;74267;50.434;7.398;2024-01-10T02:08:38;102047.50;;;-5.26;66.14
84147;BME280;74267;50.434;7.398;2024-01-10T02:11:04;102042.63;;;-5.32;66.31
84147;BME280;74267;50.434;7.398;2024-01-10T02:13:30;102050.34;;;-5.32;66.28
84147;BME280;74267;50.434;7.398;2024-01-10T02:15:58;102046.25;;;-5.36;66.19
84147;BME280;74267;50.434;7.398;2024-01-10T02:18:23;102035.97;;;-5.36;66.47
84147;BME280;74267;50.434;7.398;2024-01-10T02:20:50;102039.84;;;-5.46;66.16
84147;BME280;74267;50.434;7.398;2024-01-10T02:23:15;102033.59;;;-5.59;66.45
84147;BME280;74267;50.434;7.398;2024-01-10T02:25:41;102034.34;;;-5.57;66.33
84147;BME280;74267;50.434;7.398;2024-01-10T02:28:07;102034.22;;;-5.54;66.63
84147;BME280;74267;50.434;7.398;2024-01-10T02:30:33;102029.72;;;-5.49;66.12
84147;BME280;74267;50.434;7.398;2024-01-10T02:32:58;102029.44;;;-5.43;66.38
84147;BME280;74267;50.434;7.398;2024-01-10T02:35:23;102038.03;;;-5.44;66.97
84147;BME280;74267;50.434;7.398;2024-01-10T02:37:49;102039.00;;;-5.47;66.90
84147;BME280;74267;50.434;7.398;2024-01-10T02:40:16;102036.13;;;-5.39;66.96
84147;BME280;74267;50.434;7.398;2024-01-10T02:42:42;102035.97;;;-5.36;66.89
84147;BME280;74267;50.434;7.398;2024-01-10T02:45:07;102035.41;;;-5.43;66.85
84147;BME280;74267;50.434;7.398;2024-01-10T02:47:33;102032.91;;;-5.44;65.98
84147;BME280;74267;50.434;7.398;2024-01-10T02:49:58;102036.25;;;-5.42;65.83
84147;BME280;74267;50.434;7.398;2024-01-10T02:52:23;102028.50;;;-5.41;66.71
84147;BME280;74267;50.434;7.398;2024-01-10T02:54:49;102026.38;;;-5.51;66.96
84147;BME280;74267;50.434;7.398;2024-01-10T02:57:14;102033.47;;;-5.56;67.45
84147;BME280;74267;50.434;7.398;2024-01-10T02:59:39;102024.47;;;-5.46;67.63
84147;BME280;74267;50.434;7.398;2024-01-10T03:02:05;102030.28;;;-5.43;67.53
84147;BME280;74267;50.434;7.398;2024-01-10T03:04:30;102031.66;;;-5.54;66.72
84147;BME280;74267;50.434;7.398;2024-01-10T03:06:55;102031.78;;;-5.57;67.12
84147;BME280;74267;50.434;7.398;2024-01-10T03:09:22;102021.78;;;-5.63;66.99
84147;BME280;74267;50.434;7.398;2024-01-10T03:11:47;102028.88;;;-5.68;67.36
84147;BME280;74267;50.434;7.398;2024-01-10T03:14:13;102024.50;;;-5.66;68.28
84147;BME280;74267;50.434;7.398;2024-01-10T03:16:38;102012.38;;;-5.63;68.25
84147;BME280;74267;50.434;7.398;2024-01-10T03:19:04;102016.53;;;-5.60;67.48
84147;BME280;74267;50.434;7.398;2024-01-10T03:21:29;102019.88;;;-5.58;68.69
84147;BME280;74267;50.434;7.398;2024-01-10T03:23:59;102028.47;;;-5.59;67.98
84147;BME280;74267;50.434;7.398;2024-01-10T03:26:25;102020.13;;;-5.64;68.12
84147;BME280;74267;50.434;7.398;2024-01-10T03:28:51;102025.13;;;-5.61;67.69
84147;BME280;74267;50.434;7.398;2024-01-10T03:31:16;102021.66;;;-5.60;67.92
84147;BME280;74267;50.434;7.398;2024-01-10T03:33:42;102013.34;;;-5.65;68.04
84147;BME280;74267;50.434;7.398;2024-01-10T03:36:11;102015.25;;;-5.70;68.26
84147;BME280;74267;50.434;7.398;2024-01-10T03:38:36;102011.94;;;-5.72;68.04
84147;BME280;74267;50.434;7.398;2024-01-10T03:41:02;102009.31;;;-5.71;67.91
84147;BME280;74267;50.434;7.398;2024-01-10T03:43:27;102005.28;;;-5.76;68.46
84147;BME280;74267;50.434;7.398;2024-01-10T03:45:52;102010.84;;;-5.67;69.02
84147;BME280;74267;50.434;7.398;2024-01-10T03:48:18;102000.59;;;-5.67;68.29
84147;BME280;74267;50.434;7.398;2024-01-10T03:50:43;101998.88;;;-5.66;68.26
84147;BME280;74267;50.434;7.398;2024-01-10T03:53:08;102006.56;;;-5.66;68.75
84147;BME280;74267;50.434;7.398;2024-01-10T03:55:34;102004.13;;;-5.69;68.95
84147;BME280;74267;50.434;7.398;2024-01-10T03:57:59;102003.34;;;-5.71;68.37
84147;BME280;74267;50.434;7.398;2024-01-10T04:00:25;102000.00;;;-5.73;68.63
84147;BME280;74267;50.434;7.398;2024-01-10T04:02:51;102004.13;;;-5.69;68.25
84147;BME280;74267;50.434;7.398;2024-01-10T04:05:16;101999.13;;;-5.72;68.52
84147;BME280;74267;50.434;7.398;2024-01-10T04:07:42;101991.44;;;-5.72;68.53
84147;BME280;74267;50.434;7.398;2024-01-10T04:10:11;101994.19;;;-5.77;69.32
84147;BME280;74267;50.434;7.398;2024-01-10T04:12:40;101998.78;;;-5.83;69.78
84147;BME280;74267;50.434;7.398;2024-01-10T04:15:06;101998.47;;;-5.77;69.39
84147;BME280;74267;50.434;7.398;2024-01-10T04:17:31;102008.88;;;-5.80;69.83
84147;BME280;74267;50.434;7.398;2024-01-10T04:19:57;102001.56;;;-5.88;70.32
84147;BME280;74267;50.434;7.398;2024-01-10T04:22:25;102008.03;;;-5.99;70.86
84147;BME280;74267;50.434;7.398;2024-01-10T04:24:51;102008.59;;;-5.93;70.87
84147;BME280;74267;50.434;7.398;2024-01-10T04:27:16;102005.72;;;-5.85;70.04
84147;BME280;74267;50.434;7.398;2024-01-10T04:29:43;102006.94;;;-5.94;70.56
84147;BME280;74267;50.434;7.398;2024-01-10T04:32:08;102016.44;;;-5.77;70.66
84147;BME280;74267;50.434;7.398;2024-01-10T04:34:34;102013.28;;;-5.82;70.90
84147;BME280;74267;50.434;7.398;2024-01-10T04:36:59;102014.69;;;-5.95;71.42
84147;BME280;74267;50.434;7.398;2024-01-10T04:39:25;102016.34;;;-5.94;71.62
84147;BME280;74267;50.434;7.398;2024-01-10T04:41:50;102016.22;;;-5.91;71.49
84147;BME280;74267;50.434;7.398;2024-01-10T04:44:15;102008.66;;;-5.94;71.53
84147;BME280;74267;50.434;7.398;2024-01-10T04:46:41;102013.88;;;-5.77;71.61
84147;BME280;74267;50.434;7.398;2024-01-10T04:49:07;102017.06;;;-5.72;71.56
84147;BME280;74267;50.434;7.398;2024-01-10T04:51:32;102005.13;;;-5.73;71.11
84147;BME280;74267;50.434;7.398;2024-01-10T04:53:58;102013.59;;;-5.71;71.45
84147;BME280;74267;50.434;7.398;2024-01-10T04:56:23;102012.38;;;-5.81;72.10
84147;BME280;74267;50.434;7.398;2024-01-10T04:58:48;101998.22;;;-5.71;71.49
84147;BME280;74267;50.434;7.398;2024-01-10T05:01:14;102001.81;;;-5.75;71.95
84147;BME280;74267;50.434;7.398;2024-01-10T05:03:40;102002.13;;;-5.81;71.55
84147;BME280;74267;50.434;7.398;2024-01-10T05:06:05;102002.50;;;-5.90;72.57
84147;BME280;74267;50.434;7.398;2024-01-10T05:08:31;101997.91;;;-5.82;72.98
84147;BME280;74267;50.434;7.398;2024-01-10T05:10:56;101986.56;;;-5.78;72.93
84147;BME280;74267;50.434;7.398;2024-01-10T05:13:22;101982.59;;;-5.84;73.25
84147;BME280;74267;50.434;7.398;2024-01-10T05:15:47;101975.94;;;-5.88;73.81
84147;BME280;74267;50.434;7.398;2024-01-10T05:18:12;101975.34;;;-5.76;74.44
84147;BME280;74267;50.434;7.398;2024-01-10T05:20:38;101979.38;;;-5.70;73.75
84147;BME280;74267;50.434;7.398;2024-01-10T05:23:03;101980.22;;;-5.88;73.87
84147;BME280;74267;50.434;7.398;2024-01-10T05:25:29;101970.88;;;-5.89;74.10
84147;BME280;74267;50.434;7.398;2024-01-10T05:27:54;101962.47;;;-5.74;73.84
84147;BME280;74267;50.434;7.398;2024-01-10T05:30:20;101962.31;;;-5.71;74.08
84147;BME280;74267;50.434;7.398;2024-01-10T05:32:45;101982.06;;;-5.73;73.83
84147;BME280;74267;50.434;7.398;2024-01-10T05:35:11;101970.50;;;-5.63;73.86
84147;BME280;74267;50.434;7.398;2024-01-10T05:37:36;101972.59;;;-5.71;73.77
84147;BME280;74267;50.434;7.398;2024-01-10T05:40:03;101987.69;;;-5.65;73.63
84147;BME280;74267;50.434;7.398;2024-01-10T05:42:30;101980.75;;;-5.63;73.50
84147;BME280;74267;50.434;7.398;2024-01-10T05:44:55;101980.34;;;-5.54;72.13
84147;BME280;74267;50.434;7.398;2024-01-10T05:47:20;101978.28;;;-5.46;71.76
84147;BME280;74267;50.434;7.398;2024-01-10T05:49:46;101978.00;;;-5.40;71.20
84147;BME280;74267;50.434;7.398;2024-01-10T05:52:11;101977.25;;;-5.42;70.91
84147;BME280;74267;50.434;7.398;2024-01-10T05:54:37;101974.94;;;-5.48;70.75
84147;BME280;74267;50.434;7.398;2024-01-10T05:57:02;101982.84;;;-5.53;70.29
84147;BME280;74267;50.434;7.398;2024-01-10T05:59:28;101985.47;;;-5.54;71.26
84147;BME280;74267;50.434;7.398;2024-01-10T06:01:53;101983.06;;;-5.39;69.79
84147;BME280;74267;50.434;7.398;2024-01-10T06:04:18;101986.59;;;-5.41;70.24
84147;BME280;74267;50.434;7.398;2024-01-10T06:06:45;101993.38;;;-5.40;70.05
84147;BME280;74267;50.434;7.398;2024-01-10T06:09:10;101988.56;;;-5.46;70.28
84147;BME280;74267;50.434;7.398;2024-01-10T06:11:42;101983.69;;;-5.52;70.41
84147;BME280;74267;50.434;7.398;2024-01-10T06:14:08;101993.81;;;-5.49;70.57
84147;BME280;74267;50.434;7.398;2024-01-10T06:16:33;101988.81;;;-5.52;70.83
84147;BME280;74267;50.434;7.398;2024-01-10T06:18:59;101992.56;;;-5.59;71.15
84147;BME280;74267;50.434;7.398;2024-01-10T06:21:24;101989.34;;;-5.64;71.15
84147;BME280;74267;50.434;7.398;2024-01-10T06:23:50;101978.75;;;-5.57;70.59
84147;BME280;74267;50.434;7.398;2024-01-10T06:26:15;101978.56;;;-5.52;70.56
84147;BME280;74267;50.434;7.398;2024-01-10T06:28:40;101971.59;;;-5.50;70.55
84147;BME280;74267;50.434;7.398;2024-01-10T06:31:06;101978.69;;;-5.55;70.20
84147;BME280;74267;50.434;7.398;2024-01-10T06:33:31;101987.00;;;-5.50;69.89
84147;BME280;74267;50.434;7.398;2024-01-10T06:35:57;101980.84;;;-5.46;70.08
84147;BME280;74267;50.434;7.398;2024-01-10T06:38:22;101981.88;;;-5.50;70.10
84147;BME280;74267;50.434;7.398;2024-01-10T06:40:48;101982.16;;;-5.38;70.23
84147;BME280;74267;50.434;7.398;2024-01-10T06:43:14;101981.47;;;-5.41;70.02
84147;BME280;74267;50.434;7.398;2024-01-10T06:45:40;101976.97;;;-5.36;69.86
84147;BME280;74267;50.434;7.398;2024-01-10T06:48:07;101972.84;;;-5.40;70.18
84147;BME280;74267;50.434;7.398;2024-01-10T06:50:32;101977.84;;;-5.37;69.96
84147;BME280;74267;50.434;7.398;2024-01-10T06:52:58;101972.84;;;-5.40;70.58
84147;BME280;74267;50.434;7.398;2024-01-10T06:55:23;101970.09;;;-5.36;69.94
84147;BME280;74267;50.434;7.398;2024-01-10T06:57:49;101972.72;;;-5.37;69.90
84147;BME280;74267;50.434;7.398;2024-01-10T07:00:22;101983.13;;;-5.40;70.08
84147;BME280;74267;50.434;7.398;2024-01-10T07:02:49;101984.81;;;-5.39;69.52
84147;BME280;74267;50.434;7.398;2024-01-10T07:05:15;101988.63;;;-5.48;70.11
84147;BME280;74267;50.434;7.398;2024-01-10T07:07:41;101984.50;;;-5.52;70.82
84147;BME280;74267;50.434;7.398;2024-01-10T07:10:06;101988.25;;;-5.40;70.55
84147;BME280;74267;50.434;7.398;2024-01-10T07:12:34;101990.22;;;-5.45;70.60
84147;BME280;74267;50.434;7.398;2024-01-10T07:15:00;101996.84;;;-5.41;70.39
84147;BME280;74267;50.434;7.398;2024-01-10T07:17:28;101997.69;;;-5.41;70.50
84147;BME280;74267;50.434;7.398;2024-01-10T07:19:53;101999.09;;;-5.52;70.71
84147;BME280;74267;50.434;7.398;2024-01-10T07:22:22;102003.09;;;-5.47;70.95
84147;BME280;74267;50.434;7.398;2024-01-10T07:24:47;102005.09;;;-5.53;70.86
84147;BME280;74267;50.434;7.398;2024-01-10T07:27:12;102001.59;;;-5.51;71.45
84147;BME280;74267;50.434;7.398;2024-01-10T07:29:40;102000.47;;;-5.45;70.94
84147;BME280;74267;50.434;7.398;2024-01-10T07:32:06;102002.00;;;-5.41;70.71
84147;BME280;74267;50.434;7.398;2024-01-10T07:34:34;102007.13;;;-5.41;70.61
84147;BME280;74267;50.434;7.398;2024-01-10T07:37:00;101997.13;;;-5.47;70.13
84147;BME280;74267;50.434;7.398;2024-01-10T07:39:25;102002.00;;;-5.41;70.55
84147;BME280;74267;50.434;7.398;2024-01-10T07:41:50;102002.56;;;-5.35;70.80
84147;BME280;74267;50.434;7.398;2024-01-10T07:44:16;102006.50;;;-5.28;70.14
84147;BME280;74267;50.434;7.398;2024-01-10T07:46:41;102008.22;;;-5.28;70.51
84147;BME280;74267;50.434;7.398;2024-01-10T07:49:06;102013.69;;;-5.17;70.74
84147;BME280;74267;50.434;7.398;2024-01-10T07:51:32;102015.84;;;-5.08;70.50
84147;BME280;74267;50.434;7.398;2024-01-10T07:53:58;102026.59;;;-5.19;70.16
84147;BME280;74267;50.434;7.398;2024-01-10T07:56:24;102023.09;;;-5.16;70.12
84147;BME280;74267;50.434;7.398;2024-01-10T07:58:49;102024.47;;;-5.09;69.93
84147;BME280;74267;50.434;7.398;2024-01-10T08:01:16;102024.88;;;-5.18;69.99
84147;BME280;74267;50.434;7.398;2024-01-10T08:03:41;102027.03;;;-5.09;70.28
84147;BME280;74267;50.434;7.398;2024-01-10T08:06:06;102024.03;;;-5.00;70.13
84147;BME280;74267;50.434;7.398;2024-01-10T08:08:32;102031.13;;;-5.05;70.41
84147;BME280;74267;50.434;7.398;2024-01-10T08:10:57;102027.91;;;-5.10;70.29
84147;BME280;74267;50.434;7.398;2024-01-10T08:13:22;102032.84;;;-5.06;70.14
84147;BME280;74267;50.434;7.398;2024-01-10T08:15:48;102034.47;;;-5.03;70.45
84147;BME280;74267;50.434;7.398;2024-01-10T08:18:13;102046.25;;;-4.99;70.68
84147;BME280;74267;50.434;7.398;2024-01-10T08:20:39;102045.34;;;-4.98;71.03
84147;BME280;74267;50.434;7.398;2024-01-10T08:23:05;102045.97;;;-4.93;70.45
84147;BME280;74267;50.434;7.398;2024-01-10T08:25:30;102038.88;;;-4.88;70.66
84147;BME280;74267;50.434;7.398;2024-01-10T08:27:56;102048.84;;;-4.82;70.61
84147;BME280;74267;50.434;7.398;2024-01-10T08:30:23;102039.97;;;-4.75;70.06
84147;BME280;74267;50.434;7.398;2024-01-10T08:32:49;102044.88;;;-4.70;69.91
84147;BME280;74267;50.434;7.398;2024-01-10T08:35:14;102042.84;;;-4.64;69.76
84147;BME280;74267;50.434;7.398;2024-01-10T08:37:40;102034.63;;;-4.53;69.69
84147;BME280;74267;50.434;7.398;2024-01-10T08:40:10;102034.34;;;-4.47;69.33
84147;BME280;74267;50.434;7.398;2024-01-10T08:42:37;102040.16;;;-4.44;69.05
84147;BME280;74267;50.434;7.398;2024-01-10T08:45:03;102048.50;;;-4.39;68.45
84147;BME280;74267;50.434;7.398;2024-01-10T08:47:29;102044.00;;;-4.35;68.32
84147;BME280;74267;50.434;7.398;2024-01-10T08:49:57;102044.72;;;-4.32;68.45
84147;BME280;74267;50.434;7.398;2024-01-10T08:52:23;102043.19;;;-4.36;67.61
84147;BME280;74267;50.434;7.398;2024-01-10T08:54:48;102047.88;;;-4.27;68.07
84147;BME280;74267;50.434;7.398;2024-01-10T08:57:13;102046.06;;;-4.25;67.71
84147;BME280;74267;50.434;7.398;2024-01-10T08:59:41;102048.78;;;-4.11;67.64
84147;BME280;74267;50.434;7.398;2024-01-10T09:02:06;102049.41;;;-4.06;67.40
84147;BME280;74267;50.434;7.398;2024-01-10T09:04:32;102063.78;;;-4.02;66.85
84147;BME280;74267;50.434;7.398;2024-01-10T09:06:58;102058.63;;;-4.02;67.02
84147;BME280;74267;50.434;7.398;2024-01-10T09:09:23;102067.78;;;-3.96;66.48
84147;BME280;74267;50.434;7.398;2024-01-10T09:11:48;102066.63;;;-3.91;65.95
84147;BME280;74267;50.434;7.398;2024-01-10T09:14:14;102063.13;;;-3.90;64.90
84147;BME280;74267;50.434;7.398;2024-01-10T09:16:39;102071.47;;;-3.85;64.87
84147;BME280;74267;50.434;7.398;2024-01-10T09:19:05;102074.66;;;-3.80;64.72
84147;BME280;74267;50.434;7.398;2024-01-10T09:21:30;102067.16;;;-3.84;63.05
84147;BME280;74267;50.434;7.398;2024-01-10T09:23:56;102072.16;;;-3.81;63.70
84147;BME280;74267;50.434;7.398;2024-01-10T09:26:22;102072.59;;;-3.73;62.85
84147;BME280;74267;50.434;7.398;2024-01-10T09:28:47;102067.22;;;-3.69;62.66
84147;BME280;74267;50.434;7.398;2024-01-10T09:31:13;102075.69;;;-3.67;62.74
84147;BME280;74267;50.434;7.398;2024-01-10T09:33:38;102077.06;;;-3.60;62.77
84147;BME280;74267;50.434;7.398;2024-01-10T09:36:04;102080.38;;;-3.58;63.06
84147;BME280;74267;50.434;7.398;2024-01-10T09:38:37;102076.88;;;-3.57;62.53
84147;BME280;74267;50.434;7.398;2024-01-10T09:41:03;102076.41;;;-3.48;61.78
84147;BME280;74267;50.434;7.398;2024-01-10T09:43:32;102081.09;;;-3.39;61.91
84147;BME280;74267;50.434;7.398;2024-01-10T09:46:01;102079.44;;;-3.40;61.83
84147;BME280;74267;50.434;7.398;2024-01-10T09:48:30;102087.03;;;-3.38;61.48
84147;BME280;74267;50.434;7.398;2024-01-10T09:50:56;102080.94;;;-3.36;60.75
84147;BME280;74267;50.434;7.398;2024-01-10T09:53:24;102073.63;;;-3.28;61.44
84147;BME280;74267;50.434;7.398;2024-01-10T09:55:49;102072.91;;;-3.30;61.05
84147;BME280;74267;50.434;7.398;2024-01-10T09:58:16;102065.97;;;-3.29;61.14
84147;BME280;74267;50.434;7.398;2024-01-10T10:00:41;102073.47;;;-3.25;61.00
84147;BME280;74267;50.434;7.398;2024-01-10T10:03:08;102060.03;;;-3.30;61.23
84147;BME280;74267;50.434;7.398;2024-01-10T10:05:36;102065.34;;;-3.17;61.57
84147;BME280;74267;50.434;7.398;2024-01-10T10:08:02;102056.47;;;-3.12;61.06
84147;BME280;74267;50.434;7.398;2024-01-10T10:10:28;102056.88;;;-3.04;61.10
84147;BME280;74267;50.434;7.398;2024-01-10T10:12:53;102053.16;;;-2.98;61.00
84147;BME280;74267;50.434;7.398;2024-01-10T10:15:21;102058.41;;;-3.00;60.85
84147;BME280;74267;50.434;7.398;2024-01-10T10:17:48;102046.25;;;-2.98;60.68
84147;BME280;74267;50.434;7.398;2024-01-10T10:20:21;102043.91;;;-2.87;60.64
84147;BME280;74267;50.434;7.398;2024-01-10T10:23:00;102038.41;;;-2.81;60.46
84147;BME280;74267;50.434;7.398;2024-01-10T10:25:29;102043.75;;;-2.84;59.90
84147;BME280;74267;50.434;7.398;2024-01-10T10:27:56;102041.75;;;-2.79;60.74
84147;BME280;74267;50.434;7.398;2024-01-10T10:30:21;102049.16;;;-2.73;59.73
84147;BME280;74267;50.434;7.398;2024-01-10T10:32:47;102042.00;;;-2.68;59.75
84147;BME280;74267;50.434;7.398;2024-01-10T10:35:12;102042.81;;;-2.67;59.41
84147;BME280;74267;50.434;7.398;2024-01-10T10:37:38;102034.69;;;-2.60;58.97
84147;BME280;74267;50.434;7.398;2024-01-10T10:40:04;102039.38;;;-2.52;59.35
84147;BME280;74267;50.434;7.398;2024-01-10T10:42:30;102043.38;;;-2.46;59.38
84147;BME280;74267;50.434;7.398;2024-01-10T10:45:02;102039.88;;;-2.45;59.24
84147;BME280;74267;50.434;7.398;2024-01-10T10:47:31;102041.19;;;-2.38;59.20
84147;BME280;74267;50.434;7.398;2024-01-10T10:50:02;102048.97;;;-2.24;58.59
84147;BME280;74267;50.434;7.398;2024-01-10T10:52:28;102051.97;;;-2.16;59.05
84147;BME280;74267;50.434;7.398;2024-01-10T10:54:55;102049.00;;;-2.10;58.16
84147;BME280;74267;50.434;7.398;2024-01-10T10:57:26;102048.28;;;-2.12;57.25
84147;BME280;74267;50.434;7.398;2024-01-10T10:59:53;102046.75;;;-2.01;57.22
84147;BME280;74267;50.434;7.398;2024-01-10T11:02:21;102045.91;;;-2.01;57.79
84147;BME280;74267;50.434;7.398;2024-01-10T11:04:50;102038.75;;;-1.96;57.28
84147;BME280;74267;50.434;7.398;2024-01-10T11:07:16;102039.56;;;-1.96;56.71
84147;BME280;74267;50.434;7.398;2024-01-10T11:09:44;102040.84;;;-2.03;56.74
84147;BME280;74267;50.434;7.398;2024-01-10T11:12:37;102046.75;;;-2.01;57.22
84147;BME280;74267;50.434;7.398;2024-01-10T11:15:19;102044.72;;;-1.96;56.89
84147;BME280;74267;50.434;7.398;2024-01-10T11:20:53;102046.00;;;-1.89;56.86
84147;BME280;74267;50.434;7.398;2024-01-10T11:23:48;102044.88;;;-1.99;56.93
84147;BME280;74267;50.434;7.398;2024-01-10T11:26:15;102033.38;;;-1.93;57.01
84147;BME280;74267;50.434;7.398;2024-01-10T11:28:41;102035.88;;;-1.92;56.64
84147;BME280;74267;50.434;7.398;2024-01-10T11:31:08;102033.59;;;-1.96;56.58
84147;BME280;74267;50.434;7.398;2024-01-10T11:33:36;102029.91;;;-1.92;57.80
84147;BME280;74267;50.434;7.398;2024-01-10T11:36:19;102031.81;;;-1.82;57.59
84147;BME280;74267;50.434;7.398;2024-01-10T11:39:04;102025.84;;;-1.82;57.46
84147;BME280;74267;50.434;7.398;2024-01-10T11:41:33;102021.41;;;-1.80;57.21
84147;BME280;74267;50.434;7.398;2024-01-10T11:46:42;102012.38;;;-1.87;56.63
84147;BME280;74267;50.434;7.398;2024-01-10T11:49:11;102016.25;;;-1.94;56.65
84147;BME280;74267;50.434;7.398;2024-01-10T11:51:43;102010.56;;;-1.85;56.89
84147;BME280;74267;50.434;7.398;2024-01-10T11:54:09;102010.91;;;-1.77;56.77
84147;BME280;74267;50.434;7.398;2024-01-10T11:56:41;102002.63;;;-1.68;57.23
84147;BME280;74267;50.434;7.398;2024-01-10T12:01:35;102007.06;;;-1.56;56.67
84147;BME280;74267;50.434;7.398;2024-01-10T12:04:00;101996.34;;;-1.50;56.97
84147;BME280;74267;50.434;7.398;2024-01-10T12:06:26;101991.09;;;-1.49;56.33
84147;BME280;74267;50.434;7.398;2024-01-10T12:08:51;101990.81;;;-1.44;56.58
84147;BME280;74267;50.434;7.398;2024-01-10T12:11:17;101988.97;;;-1.42;54.76
84147;BME280;74267;50.434;7.398;2024-01-10T12:13:43;101995.78;;;-1.41;56.26
84147;BME280;74267;50.434;7.398;2024-01-10T12:16:10;101989.31;;;-1.34;56.17
84147;BME280;74267;50.434;7.398;2024-01-10T12:18:36;101986.75;;;-1.34;55.35
84147;BME280;74267;50.434;7.398;2024-01-10T12:21:02;101985.28;;;-1.38;55.77
84147;BME280;74267;50.434;7.398;2024-01-10T12:23:27;101986.13;;;-1.38;55.49
84147;BME280;74267;50.434;7.398;2024-01-10T12:25:57;101987.19;;;-1.28;55.54
84147;BME280;74267;50.434;7.398;2024-01-10T12:28:26;101997.03;;;-1.20;56.54
84147;BME280;74267;50.434;7.398;2024-01-10T12:30:51;101986.31;;;-1.14;56.08
84147;BME280;74267;50.434;7.398;2024-01-10T12:33:17;101987.63;;;-1.21;55.17
84147;BME280;74267;50.434;7.398;2024-01-10T12:35:42;101994.25;;;-1.17;56.05
84147;BME280;74267;50.434;7.398;2024-01-10T12:38:10;101994.25;;;-1.17;55.21
84147;BME280;74267;50.434;7.398;2024-01-10T12:40:36;101994.81;;;-1.12;56.07
84147;BME280;74267;50.434;7.398;2024-01-10T12:43:03;101997.50;;;-0.87;55.47
84147;BME280;74267;50.434;7.398;2024-01-10T12:45:29;101996.88;;;-0.91;55.30
84147;BME280;74267;50.434;7.398;2024-01-10T12:47:54;101990.41;;;-0.84;55.71
84147;BME280;74267;50.434;7.398;2024-01-10T12:50:20;101986.78;;;-0.81;55.88
84147;BME280;74267;50.434;7.398;2024-01-10T12:52:45;101989.72;;;-0.73;55.14